Time;durP1;ratioP1;P1;durP2;ratioP2;P2;SDS_P1;SDS_P2;PMS_P1;PMS_P2;Temp;Humidity;BMP_temperature;BMP_pressure;BME280_temperature;BME280_humidity;BME280_pressure;Samples;Min_cycle;Max_cycle;Signal;HPM_P1;HPM_P2
2023/10/13 00:00:29;;;;;;;35.42;14.23;;;;;;;13.73;100.00;101119.38;7395433;19;19933;-68
2023/10/13 00:03:02;;;;;;;36.35;15.20;;;;;;;13.77;100.00;101117.97;7391155;19;19972;-68
2023/10/13 00:05:31;;;;;;;41.42;17.20;;;;;;;13.79;100.00;101112.38;7393147;19;19940;-68
2023/10/13 00:08:02;;;;;;;40.63;16.17;;;;;;;13.82;100.00;101120.94;7386753;19;19928;-68
2023/10/13 00:10:31;;;;;;;37.53;15.15;;;;;;;13.84;100.00;101115.34;7392519;19;19930;-68
2023/10/13 00:13:11;;;;;;;38.85;15.30;;;;;;;13.87;100.00;101114.94;7395206;19;19919;-68
2023/10/13 00:15:46;;;;;;;37.35;15.40;;;;;;;13.88;100.00;101105.78;7396743;19;19926;-68
2023/10/13 00:18:19;;;;;;;42.05;14.77;;;;;;;13.92;100.00;101104.38;7395072;19;20570;-68
2023/10/13 00:20:50;;;;;;;38.42;16.08;;;;;;;13.93;100.00;101115.03;7394757;19;19939;-68
2023/10/13 00:23:20;;;;;;;42.67;16.73;;;;;;;13.96;100.00;101102.97;7394816;19;20258;-68
2023/10/13 00:25:56;;;;;;;38.53;16.80;;;;;;;13.99;100.00;101102.56;7396476;19;19955;-69
2023/10/13 00:28:26;;;;;;;41.65;16.73;;;;;;;14.01;100.00;101104.06;7396026;19;19961;-69
2023/10/13 00:30:59;;;;;;;38.15;16.70;;;;;;;14.04;100.00;101092.84;7391929;19;19918;-68
2023/10/13 00:33:32;;;;;;;39.72;16.10;;;;;;;14.08;100.00;101080.56;7393859;19;19926;-68
2023/10/13 00:36:01;;;;;;;37.58;16.45;;;;;;;14.10;100.00;101080.38;7396910;19;19926;-69
2023/10/13 00:38:29;;;;;;;35.65;16.35;;;;;;;14.14;100.00;101080.84;7393677;19;19939;-68
2023/10/13 00:41:03;;;;;;;40.00;17.05;;;;;;;14.17;100.00;101083.97;7397006;19;19918;-69
2023/10/13 00:43:35;;;;;;;41.20;16.60;;;;;;;14.21;100.00;101074.44;7395937;19;19933;-68
2023/10/13 00:46:08;;;;;;;37.80;15.98;;;;;;;14.25;100.00;101077.56;7396199;19;19948;-68
2023/10/13 00:51:32;;;;;;;35.58;14.82;;;;;;;14.30;100.00;101073.25;7395540;19;20483;-68
2023/10/13 00:53:59;;;;;;;32.08;15.20;;;;;;;14.33;100.00;101070.13;7395474;19;19925;-68
2023/10/13 00:56:30;;;;;;;36.95;15.48;;;;;;;14.35;100.00;101070.84;7396074;19;19922;-69
2023/10/13 00:58:58;;;;;;;36.40;14.60;;;;;;;14.37;100.00;101063.31;7394760;19;19918;-68
2023/10/13 01:01:32;;;;;;;40.42;16.10;;;;;;;14.40;100.00;101056.69;7391225;19;19926;-69
2023/10/13 01:04:04;;;;;;;36.63;15.57;;;;;;;14.43;100.00;101061.72;7393049;19;19952;-68
2023/10/13 01:06:34;;;;;;;32.90;15.18;;;;;;;14.44;100.00;101056.09;7393812;19;19990;-68
2023/10/13 01:09:10;;;;;;;34.30;14.68;;;;;;;14.47;100.00;101055.69;7392248;19;20303;-67
2023/10/13 01:11:38;;;;;;;34.05;15.38;;;;;;;14.48;100.00;101049.25;7395853;19;19947;-69
2023/10/13 01:14:06;;;;;;;30.63;13.77;;;;;;;14.52;100.00;101055.94;7392760;19;19930;-69
2023/10/13 01:16:35;;;;;;;33.83;15.07;;;;;;;14.56;100.00;101050.97;7393613;19;19997;-68
2023/10/13 01:19:05;;;;;;;33.78;16.35;;;;;;;14.59;100.00;101050.56;7391641;19;20262;-68
2023/10/13 01:21:33;;;;;;;31.52;14.45;;;;;;;14.60;100.00;101048.69;7392238;19;20349;-68
2023/10/13 01:24:07;;;;;;;35.60;16.35;;;;;;;14.64;100.00;101045.38;7395128;19;19918;-69
2023/10/13 01:26:38;;;;;;;35.60;16.42;;;;;;;14.66;100.00;101043.31;7392472;19;19974;-68
2023/10/13 01:29:14;;;;;;;30.92;14.50;;;;;;;14.69;100.00;101037.47;7393083;19;20016;-68
2023/10/13 01:31:45;;;;;;;31.67;14.88;;;;;;;14.73;100.00;101035.22;7381904;19;19922;-68
2023/10/13 01:34:13;;;;;;;36.53;15.20;;;;;;;14.76;100.00;101030.22;7396595;19;20511;-69
2023/10/13 01:36:44;;;;;;;38.22;16.17;;;;;;;14.80;100.00;101026.06;7393049;19;19923;-68
2023/10/13 01:39:16;;;;;;;34.47;15.93;;;;;;;14.83;100.00;101019.41;7391573;19;19929;-68
2023/10/13 01:41:45;;;;;;;33.65;16.02;;;;;;;14.87;100.00;101023.41;7394169;19;19911;-68
2023/10/13 01:44:11;;;;;;;35.33;16.08;;;;;;;14.89;100.00;101015.88;7395010;19;24328;-69
2023/10/13 01:46:42;;;;;;;31.23;15.30;;;;;;;14.94;100.00;101013.41;7392108;19;20421;-69
2023/10/13 01:49:08;;;;;;;33.08;15.43;;;;;;;15.00;100.00;100999.03;7394026;19;20349;-68
2023/10/13 01:51:39;;;;;;;33.28;15.70;;;;;;;15.07;100.00;100997.19;7390955;19;20383;-68
2023/10/13 01:54:11;;;;;;;26.73;14.82;;;;;;;15.10;100.00;100988.63;7396652;19;19919;-68
2023/10/13 01:56:43;;;;;;;27.80;14.25;;;;;;;15.16;100.00;100986.97;7391452;19;19940;-68
2023/10/13 01:59:09;;;;;;;;;;;;;;;15.12;100.00;100983.00;7395863;19;19926;-68
2023/10/13 02:01:37;;;;;;;29.42;13.45;;;;;;;15.18;100.00;100980.31;7389961;19;19926;-69
2023/10/13 02:04:06;;;;;;;27.30;14.77;;;;;;;15.25;100.00;100973.03;7394185;19;19923;-68
2023/10/13 02:06:36;;;;;;;31.80;13.57;;;;;;;15.29;100.00;100981.59;7391151;19;19927;-69
2023/10/13 02:09:10;;;;;;;33.08;14.98;;;;;;;15.32;100.00;100963.00;7394404;19;19963;-68
2023/10/13 02:11:54;;;;;;;29.73;14.25;;;;;;;15.35;100.00;100961.78;7391403;19;19927;-68
2023/10/13 02:14:22;;;;;;;29.63;12.18;;;;;;;15.37;100.00;100957.81;7391500;19;20396;-69
2023/10/13 02:16:55;;;;;;;23.20;12.15;;;;;;;15.39;100.00;100949.47;7389594;19;19982;-69
2023/10/13 02:19:27;;;;;;;27.75;12.85;;;;;;;15.40;100.00;100956.56;7390215;19;19922;-68
2023/10/13 02:21:58;;;;;;;21.58;11.32;;;;;;;15.41;100.00;100953.63;7396224;19;19918;-69
2023/10/13 02:24:29;;;;;;;19.70;11.88;;;;;;;15.44;100.00;100955.13;7395583;19;19929;-68
2023/10/13 02:27:03;;;;;;;25.52;12.10;;;;;;;15.45;100.00;100954.06;7394409;19;20570;-69
2023/10/13 02:29:38;;;;;;;26.85;11.82;;;;;;;15.48;100.00;100947.38;7394269;19;19922;-69
2023/10/13 02:32:05;;;;;;;21.77;12.15;;;;;;;15.47;100.00;100945.72;7392004;19;19934;-70
2023/10/13 02:34:33;;;;;;;23.02;11.75;;;;;;;15.47;100.00;100940.28;7392970;19;20004;-69
2023/10/13 02:36:59;;;;;;;23.20;11.43;;;;;;;15.45;100.00;100938.59;7392115;19;20229;-68
2023/10/13 02:39:28;;;;;;;;;;;;;;;15.38;100.00;100931.50;7398113;19;19929;-69
2023/10/13 02:42:01;;;;;;;27.88;12.45;;;;;;;15.45;100.00;100933.16;7391382;19;19921;-69
2023/10/13 02:44:31;;;;;;;26.17;11.48;;;;;;;15.47;100.00;100927.53;7394084;19;19961;-69
2023/10/13 02:46:57;;;;;;;23.48;12.75;;;;;;;15.49;100.00;100920.00;7388749;19;19918;-69
2023/10/13 02:49:31;;;;;;;26.08;13.48;;;;;;;15.51;100.00;100923.41;7389721;19;20345;-69
2023/10/13 02:51:59;;;;;;;27.20;13.18;;;;;;;15.50;100.00;100910.84;7391620;19;19923;-69
2023/10/13 02:54:30;;;;;;;25.55;13.95;;;;;;;15.53;100.00;100912.34;7387234;19;19938;-69
2023/10/13 02:56:57;;;;;;;29.20;13.77;;;;;;;15.53;100.00;100912.34;7392337;19;19929;-68
2023/10/13 02:59:39;;;;;;;36.03;14.73;;;;;;;15.55;100.00;100905.66;7392025;19;19923;-68
2023/10/13 03:02:17;;;;;;;28.17;15.07;;;;;;;15.56;100.00;100899.19;7383546;19;19939;-69
2023/10/13 03:04:46;;;;;;;29.48;13.65;;;;;;;15.58;100.00;100893.53;7391127;19;19922;-68
2023/10/13 03:07:15;;;;;;;31.92;15.75;;;;;;;15.59;100.00;100887.88;7389605;19;21039;-69
2023/10/13 03:09:50;;;;;;;26.60;14.57;;;;;;;15.62;100.00;100892.91;7391388;19;19923;-69
2023/10/13 03:12:16;;;;;;;28.48;14.27;;;;;;;15.63;100.00;100889.13;7391305;19;20519;-68
2023/10/13 03:14:49;;;;;;;;;;;;;;;15.55;100.00;100886.63;7392115;19;20312;-68
2023/10/13 03:17:17;;;;;;;33.85;14.65;;;;;;;15.63;100.00;100885.59;7385250;19;19933;-69
2023/10/13 03:19:49;;;;;;;28.00;14.55;;;;;;;15.65;100.00;100887.06;7391441;19;20455;-69
2023/10/13 03:22:16;;;;;;;24.27;14.07;;;;;;;15.67;100.00;100876.81;7391433;19;19922;-69
2023/10/13 03:24:48;;;;;;;27.42;15.57;;;;;;;15.68;100.00;100877.66;7391732;19;19930;-68
2023/10/13 03:27:23;;;;;;;28.30;14.23;;;;;;;15.67;100.00;100882.25;7390421;19;20300;-68
2023/10/13 03:30:00;;;;;;;29.05;14.77;;;;;;;15.68;100.00;100870.34;7393066;19;20459;-69
2023/10/13 03:32:30;;;;;;;28.80;15.20;;;;;;;15.67;100.00;100871.38;7394146;19;20039;-69
2023/10/13 03:35:11;;;;;;;30.92;14.70;;;;;;;15.70;100.00;100862.00;7395380;19;20028;-69
2023/10/13 03:37:40;;;;;;;25.13;13.57;;;;;;;15.70;100.00;100853.84;7397013;19;20398;-68
2023/10/13 03:40:33;;;;;;;27.98;13.77;;;;;;;15.73;100.00;100861.56;7393862;19;20249;-68
2023/10/13 03:43:04;;;;;;;27.85;14.55;;;;;;;15.72;100.00;100863.44;7395443;19;19961;-68
2023/10/13 03:45:38;;;;;;;24.17;13.27;;;;;;;15.72;100.00;100844.44;7396405;19;20443;-68
2023/10/13 03:48:11;;;;;;;26.08;13.40;;;;;;;15.74;100.00;100849.66;7395637;19;19926;-68
2023/10/13 03:50:46;;;;;;;25.10;13.38;;;;;;;15.74;100.00;100838.78;7394561;19;19942;-69
2023/10/13 03:53:15;;;;;;;26.55;13.55;;;;;;;15.73;100.00;100834.41;7394380;19;19922;-69
2023/10/13 03:55:47;;;;;;;28.65;14.45;;;;;;;15.74;100.00;100830.66;7395761;19;19919;-69
2023/10/13 03:58:16;;;;;;;33.00;14.77;;;;;;;15.73;100.00;100820.81;7393574;19;19947;-69
2023/10/13 04:00:48;;;;;;;25.77;12.30;;;;;;;15.72;100.00;100817.25;7393535;19;19967;-68
2023/10/13 04:03:19;;;;;;;27.92;14.50;;;;;;;15.72;100.00;100814.56;7392761;19;19923;-69
2023/10/13 04:06:00;;;;;;;28.55;12.80;;;;;;;15.72;100.00;100803.69;7396723;19;19929;-69
2023/10/13 04:16:54;;;;;;;23.58;11.95;;;;;;;15.70;100.00;100777.81;7395448;19;19923;-69
2023/10/13 04:19:28;;;;;;;23.77;11.82;;;;;;;15.69;100.00;100765.25;7394862;19;19922;-68
2023/10/13 04:22:13;;;;;;;21.60;11.48;;;;;;;15.70;100.00;100764.22;7394005;19;19926;-69
2023/10/13 04:25:00;;;;;;;19.38;11.07;;;;;;;15.70;100.00;100751.47;7394554;19;19965;-69
2023/10/13 04:27:53;;;;;;;24.65;11.30;;;;;;;15.70;100.00;100747.91;7393314;19;19930;-68
2023/10/13 04:30:24;;;;;;;23.00;11.05;;;;;;;15.70;100.00;100748.75;7389681;19;20047;-68
2023/10/13 04:35:47;;;;;;;18.42;10.77;;;;;;;15.72;100.00;100737.66;7389613;19;19922;-69
2023/10/13 04:38:19;;;;;;;22.67;10.93;;;;;;;15.73;100.00;100731.19;7396310;19;19919;-68
2023/10/13 04:43:55;;;;;;;21.20;11.90;;;;;;;15.73;100.00;100714.91;7393374;19;19922;-69
2023/10/13 04:46:35;;;;;;;28.40;13.48;;;;;;;15.73;100.00;100709.47;7396486;19;20011;-69
2023/10/13 04:49:27;;;;;;;27.98;14.27;;;;;;;15.73;100.00;100693.16;7395019;19;19947;-69
2023/10/13 04:51:58;;;;;;;26.83;13.52;;;;;;;15.73;100.00;100693.16;7394230;19;19937;-70
2023/10/13 04:54:45;;;;;;;21.25;11.40;;;;;;;15.73;100.00;100683.13;7394504;19;19929;-70
2023/10/13 04:57:25;;;;;;;21.70;10.40;;;;;;;15.73;100.00;100674.16;7394949;19;20052;-70
2023/10/13 05:03:29;;;;;;;19.35;9.95;;;;;;;15.75;100.00;100666.59;7387706;19;19926;-69
2023/10/13 05:06:10;;;;;;;18.92;9.20;;;;;;;15.75;100.00;100669.31;7396161;19;19914;-69
2023/10/13 05:46:35;;;;;;;16.10;9.68;;;;;;;15.68;100.00;100592.50;7394956;19;19930;-71
2023/10/13 05:49:39;;;;;;;16.70;9.38;;;;;;;15.69;100.00;100591.44;7394606;19;19998;-72
2023/10/13 05:52:18;;;;;;;14.13;7.35;;;;;;;15.67;100.00;100578.06;7389814;19;19928;-72
2023/10/13 06:30:05;;;;;;;7.75;5.13;;;;;;;15.53;100.00;100521.34;7391218;19;19954;-73
2023/10/13 06:32:39;;;;;;;9.00;4.95;;;;;;;15.54;100.00;100523.00;7388006;19;20609;-73
2023/10/13 06:35:18;;;;;;;7.55;5.30;;;;;;;15.56;100.00;100518.19;7391483;19;19943;-74
2023/10/13 06:37:47;;;;;;;7.18;4.30;;;;;;;15.56;100.00;100515.47;7391118;19;19922;-73
2023/10/13 06:40:24;;;;;;;6.88;4.90;;;;;;;15.58;100.00;100513.38;7394109;19;20033;-73
2023/10/13 06:43:11;;;;;;;;;;;;;;;15.49;100.00;100514.66;7396744;19;19918;-73
2023/10/13 06:45:40;;;;;;;6.28;4.10;;;;;;;15.56;100.00;100516.31;7393999;19;19922;-74
2023/10/13 06:48:11;;;;;;;7.40;4.47;;;;;;;15.58;100.00;100529.66;7391831;19;19927;-74
2023/10/13 06:50:42;;;;;;;7.03;4.70;;;;;;;15.60;100.00;100519.44;7388699;19;20408;-73
2023/10/13 06:53:12;;;;;;;6.25;4.20;;;;;;;15.61;100.00;100518.38;7391324;19;19926;-73
2023/10/13 06:55:40;;;;;;;7.90;4.68;;;;;;;15.62;100.00;100528.19;7391001;19;19915;-75
2023/10/13 06:58:13;;;;;;;7.50;4.15;;;;;;;15.63;100.00;100524.41;7383358;19;19918;-75
2023/10/13 07:00:52;;;;;;;6.50;3.95;;;;;;;15.65;100.00;100525.03;7385154;19;20503;-75
2023/10/13 07:03:21;;;;;;;6.47;3.63;;;;;;;15.66;100.00;100508.50;7396159;19;19930;-78
2023/10/13 07:05:50;;;;;;;8.73;3.58;;;;;;;15.67;100.00;100520.22;7393888;19;20365;-67
2023/10/13 07:08:20;;;;;;;4.68;3.42;;;;;;;15.66;100.00;100518.56;7398935;19;19933;-67
2023/10/13 07:11:02;;;;;;;4.40;3.20;;;;;;;15.68;100.00;100524.59;7393858;19;19926;-65
2023/10/13 07:13:36;;;;;;;4.80;3.45;;;;;;;15.69;100.00;100516.25;7394061;19;19918;-67
2023/10/13 07:16:12;;;;;;;3.70;2.92;;;;;;;15.70;100.00;100515.19;7388422;19;19923;-66
2023/10/13 07:18:49;;;;;;;7.35;3.63;;;;;;;15.75;100.00;100520.78;7390808;19;19922;-66
2023/10/13 07:21:24;;;;;;;4.78;2.70;;;;;;;15.81;100.00;100524.50;7398801;19;19930;-70
2023/10/13 07:24:00;;;;;;;4.45;2.85;;;;;;;15.85;100.00;100521.13;7395350;19;19923;-65
2023/10/13 07:26:30;;;;;;;5.65;2.75;;;;;;;15.93;100.00;100516.47;7397164;19;19923;-68
2023/10/13 07:29:02;;;;;;;6.43;2.20;;;;;;;15.97;100.00;100506.81;7397689;19;20256;-70
2023/10/13 07:31:31;;;;;;;4.78;2.47;;;;;;;16.00;100.00;100514.56;7393414;19;19951;-69
2023/10/13 07:34:05;;;;;;;6.28;2.33;;;;;;;16.06;100.00;100511.78;7396455;19;19922;-68
2023/10/13 07:36:39;;;;;;;4.75;1.80;;;;;;;16.08;100.00;100503.41;7393456;19;19947;-69
2023/10/13 07:39:20;;;;;;;4.20;2.00;;;;;;;16.11;100.00;100497.53;7397658;19;19923;-69
2023/10/13 07:42:03;;;;;;;4.57;1.85;;;;;;;16.12;100.00;100494.59;7395743;19;19933;-70
2023/10/13 07:44:40;;;;;;;3.28;1.80;;;;;;;16.15;100.00;100504.19;7395768;19;20004;-71
2023/10/13 07:47:08;;;;;;;3.80;2.05;;;;;;;16.17;100.00;100500.19;7394567;19;19994;-70
2023/10/13 07:49:39;;;;;;;4.28;2.10;;;;;;;16.19;100.00;100499.97;7396630;19;20652;-71
2023/10/13 07:52:23;;;;;;;3.15;2.03;;;;;;;16.21;100.00;100493.25;7395036;19;19919;-70
2023/10/13 07:55:00;;;;;;;3.85;1.80;;;;;;;16.22;100.00;100494.09;7392517;19;19930;-71
2023/10/13 07:57:30;;;;;;;6.93;2.00;;;;;;;16.22;100.00;100499.53;7396566;19;20268;-71
2023/10/13 08:00:25;;;;;;;6.55;2.00;;;;;;;16.21;100.00;100481.56;7398445;19;20398;-71
2023/10/13 08:03:08;;;;;;;5.22;2.15;;;;;;;16.20;100.00;100479.88;7397758;19;19944;-71
2023/10/13 08:05:55;;;;;;;;;;;;;;;16.09;100.00;100458.88;7397857;19;19952;-71
2023/10/13 08:08:25;;;;;;;4.50;2.33;;;;;;;16.17;100.00;100464.88;7398290;19;20060;-71
2023/10/13 08:11:00;;;;;;;6.43;2.97;;;;;;;16.17;100.00;100464.88;7396127;19;19944;-70
2023/10/13 08:13:29;;;;;;;4.88;2.40;;;;;;;16.16;100.00;100467.81;7393785;19;19925;-71
2023/10/13 08:16:06;;;;;;;11.50;7.25;;;;;;;16.16;100.00;100471.34;7394417;19;20544;-69
2023/10/13 08:18:35;;;;;;;11.10;4.53;;;;;;;16.17;100.00;100470.31;7395967;19;19948;-71
2023/10/13 08:21:05;;;;;;;6.57;3.15;;;;;;;16.16;100.00;100460.47;7396526;19;20380;-71
2023/10/13 08:23:57;;;;;;;35.83;16.38;;;;;;;16.16;100.00;100452.31;7397490;19;19919;-71
2023/10/13 08:26:56;;;;;;;11.57;5.13;;;;;;;16.15;100.00;100434.34;7395932;19;19965;-71
2023/10/13 08:32:23;;;;;;;6.95;3.25;;;;;;;16.13;100.00;100398.44;7395557;19;19935;-71
2023/10/13 08:37:46;;;;;;;6.90;3.72;;;;;;;16.12;100.00;100394.03;7396836;19;19982;-71
2023/10/13 08:43:14;;;;;;;7.15;2.92;;;;;;;16.15;100.00;100376.44;7396020;19;20008;-71
2023/10/13 08:48:36;;;;;;;8.65;2.88;;;;;;;16.17;100.00;100372.47;7395662;19;19928;-72
2023/10/13 08:51:31;;;;;;;8.45;3.03;;;;;;;16.20;100.00;100376.59;7393612;19;19926;-72
2023/10/13 08:54:08;;;;;;;7.32;2.83;;;;;;;16.20;100.00;100361.13;7395181;19;19922;-72
2023/10/13 08:56:47;;;;;;;6.53;3.00;;;;;;;16.26;100.00;100371.13;7396232;19;19930;-72
2023/10/13 08:59:22;;;;;;;10.13;2.92;;;;;;;16.30;100.00;100364.16;7393475;19;19934;-72
2023/10/13 09:01:59;;;;;;;8.68;3.38;;;;;;;16.37;100.00;100368.69;7394754;19;20277;-72
2023/10/13 09:04:32;;;;;;;8.63;2.70;;;;;;;16.41;100.00;100357.13;7395656;19;20804;-72
2023/10/13 09:07:15;;;;;;;6.55;3.10;;;;;;;16.46;100.00;100356.44;7391075;19;19922;-72
2023/10/13 09:10:11;;;;;;;10.98;4.05;;;;;;;16.48;100.00;100346.19;7396475;19;20387;-72
2023/10/13 09:13:00;;;;;;;8.02;3.33;;;;;;;16.53;100.00;100325.38;7396329;19;19925;-73
2023/10/13 09:15:59;;;;;;;13.13;3.80;;;;;;;16.58;100.00;100330.16;7394657;19;19961;-73
2023/10/13 09:21:43;;;;;;;8.90;3.70;;;;;;;16.75;100.00;100312.16;7393602;19;19939;-72
2023/10/13 09:24:21;;;;;;;10.20;3.85;;;;;;;16.83;100.00;100313.75;7392677;19;19953;-73
2023/10/13 09:26:53;;;;;;;10.68;4.05;;;;;;;16.91;100.00;100310.69;7392631;19;19945;-73
2023/10/13 09:29:19;;;;;;;14.10;4.95;;;;;;;16.97;100.00;100304.28;7394913;19;20401;-73
2023/10/13 09:31:51;;;;;;;8.40;3.85;;;;;;;17.00;100.00;100295.69;7394263;19;19923;-73
2023/10/13 09:34:21;;;;;;;;;;;;;;;16.96;100.00;100295.28;7399200;19;19918;-73
2023/10/13 09:36:55;;;;;;;7.72;4.03;;;;;;;17.07;100.00;100293.69;7393472;19;19922;-73
2023/10/13 09:39:44;;;;;;;11.80;3.90;;;;;;;17.10;100.00;100260.53;7393700;19;19926;-73
2023/10/13 09:42:15;;;;;;;8.65;3.88;;;;;;;17.12;100.00;100262.00;7394168;19;19943;-73
2023/10/13 09:44:49;;;;;;;9.85;4.15;;;;;;;17.20;100.00;100291.59;7393012;19;19942;-73
2023/10/13 09:47:29;;;;;;;9.68;3.92;;;;;;;17.30;100.00;100274.66;7391997;19;19991;-73
2023/10/13 09:50:04;;;;;;;10.85;4.00;;;;;;;17.39;100.00;100261.50;7395894;19;20489;-73
2023/10/13 09:52:37;;;;;;;10.68;4.22;;;;;;;17.48;100.00;100255.47;7396385;19;20010;-73
2023/10/13 09:55:18;;;;;;;8.57;4.07;;;;;;;17.60;100.00;100252.81;7394934;19;19931;-74
2023/10/13 09:57:57;;;;;;;12.73;4.03;;;;;;;17.72;100.00;100250.06;7393916;19;19935;-73
2023/10/13 10:03:29;;;;;;;7.68;3.15;;;;;;;17.83;100.00;100239.13;7392476;19;20268;-73
2023/10/13 10:06:03;;;;;;;9.57;3.60;;;;;;;17.90;100.00;100241.75;7393841;19;19934;-73
2023/10/13 10:08:38;;;;;;;9.68;4.40;;;;;;;17.92;100.00;100245.88;7395855;19;19926;-73
2023/10/13 10:11:40;;;;;;;8.95;3.40;;;;;;;17.96;100.00;100230.69;7391258;19;19982;-73
2023/10/13 10:14:17;;;;;;;8.57;3.13;;;;;;;18.08;100.00;100247.00;7387591;19;19926;-73
2023/10/13 10:16:51;;;;;;;10.88;3.83;;;;;;;18.16;100.00;100243.94;7394770;19;19930;-73
2023/10/13 10:19:20;;;;;;;12.05;3.50;;;;;;;18.25;100.00;100236.19;7393815;19;20344;-73
2023/10/13 10:21:51;;;;;;;11.70;3.65;;;;;;;18.32;100.00;100228.69;7394628;19;20436;-73
2023/10/13 10:24:29;;;;;;;10.90;3.67;;;;;;;18.37;99.52;100253.34;7394067;19;19922;-73
2023/10/13 10:26:58;;;;;;;7.82;3.20;;;;;;;18.43;100.00;100228.63;7394039;19;19944;-73
2023/10/13 10:29:27;;;;;;;10.80;3.95;;;;;;;18.46;99.31;100239.09;7394400;19;20322;-74
2023/10/13 10:31:56;;;;;;;8.20;4.03;;;;;;;18.52;99.03;100234.53;7391873;19;19922;-74
2023/10/13 10:34:35;;;;;;;11.93;3.88;;;;;;;18.55;98.18;100210.34;7391741;19;19922;-73
2023/10/13 10:37:09;;;;;;;9.20;3.60;;;;;;;18.63;98.60;100224.69;7391940;19;19930;-74
2023/10/13 10:39:49;;;;;;;13.20;3.65;;;;;;;18.68;97.87;100206.47;7392753;19;19933;-73
2023/10/13 10:42:23;;;;;;;9.30;3.53;;;;;;;18.77;97.85;100209.66;7392110;19;19943;-74
2023/10/13 10:44:55;;;;;;;9.38;3.78;;;;;;;18.83;96.61;100184.09;7392477;19;20345;-74
2023/10/13 10:47:30;;;;;;;9.07;3.22;;;;;;;18.89;96.68;100189.41;7393590;19;20304;-74
2023/10/13 10:50:00;;;;;;;7.75;3.47;;;;;;;19.00;95.00;100184.91;7392878;19;19918;-74
2023/10/13 10:52:36;;;;;;;9.18;3.70;;;;;;;19.02;95.68;100197.25;7393929;19;19951;-74
2023/10/13 10:55:13;;;;;;;12.38;3.75;;;;;;;18.98;95.17;100182.44;7393016;19;20566;-73
2023/10/13 10:57:43;;;;;;;10.00;3.20;;;;;;;18.97;94.94;100199.06;7390414;19;19918;-74
2023/10/13 11:00:25;;;;;;;8.50;3.53;;;;;;;18.92;93.47;100172.53;7393384;19;19930;-73
2023/10/13 11:02:57;;;;;;;11.90;3.92;;;;;;;18.94;93.84;100181.28;7392029;19;19934;-74
2023/10/13 11:05:32;;;;;;;11.90;4.30;;;;;;;18.97;94.76;100155.41;7392406;19;20316;-74
2023/10/13 11:08:01;;;;;;;20.88;5.78;;;;;;;19.06;93.14;100158.53;7392882;19;19953;-74
2023/10/13 11:10:36;;;;;;;10.10;3.78;;;;;;;19.14;93.40;100155.38;7393052;19;19926;-74
2023/10/13 11:13:13;;;;;;;13.73;3.78;;;;;;;19.23;92.38;100149.25;7385705;19;19922;-74
2023/10/13 11:15:44;;;;;;;7.60;3.28;;;;;;;19.38;91.81;100149.44;7392322;19;19921;-74
2023/10/13 11:18:20;;;;;;;11.07;5.20;;;;;;;19.51;91.66;100151.00;7390838;19;19944;-71
2023/10/13 11:20:53;;;;;;;13.10;4.20;;;;;;;19.57;90.23;100139.09;7392539;19;20353;-73
2023/10/13 11:23:25;;;;;;;15.98;7.07;;;;;;;19.64;89.89;100155.28;7388126;19;20494;-74
2023/10/13 11:26:03;;;;;;;13.80;3.85;;;;;;;19.68;85.63;100161.88;7392142;19;20027;-74
2023/10/13 11:28:34;;;;;;;17.13;5.45;;;;;;;19.76;87.67;100139.59;7392959;19;19939;-75
2023/10/13 11:31:10;;;;;;;22.35;8.45;;;;;;;19.76;87.62;100137.66;7391053;19;19947;-75
2023/10/13 11:33:46;;;;;;;11.68;5.03;;;;;;;19.72;87.79;100150.19;7391892;19;20408;-73
2023/10/13 11:36:17;;;;;;;14.50;6.47;;;;;;;19.69;88.25;100126.13;7390820;19;19919;-72
2023/10/13 11:38:49;;;;;;;11.70;5.43;;;;;;;19.65;88.32;100122.25;7388150;19;20312;-72
2023/10/13 11:41:22;;;;;;;15.73;5.93;;;;;;;19.62;87.42;100114.56;7388748;19;20287;-71
2023/10/13 11:43:52;;;;;;;11.95;4.60;;;;;;;19.61;88.60;100118.38;7391571;19;19930;-68
2023/10/13 11:46:55;;;;;;;13.25;7.15;;;;;;;19.60;88.50;100129.53;7379738;19;20325;-72
2023/10/13 11:49:18;;;;;;;11.82;4.35;;;;;;;19.57;88.06;100119.97;7394020;19;19923;-69
2023/10/13 11:51:48;;;;;;;11.60;4.32;;;;;;;19.56;87.39;100120.19;7395106;19;20004;-69
2023/10/13 11:54:17;;;;;;;11.82;4.13;;;;;;;19.56;87.36;100090.97;7395092;19;19964;-71
2023/10/13 11:56:49;;;;;;;14.65;4.68;;;;;;;19.56;87.24;100103.81;7393526;19;19929;-70
2023/10/13 11:59:27;;;;;;;12.65;4.50;;;;;;;19.61;86.16;100101.16;7384569;19;19931;-69
2023/10/13 12:04:40;;;;;;;11.40;3.70;;;;;;;19.69;85.37;100098.78;7396947;19;20380;-71
2023/10/13 12:07:19;;;;;;;13.88;4.25;;;;;;;19.70;85.56;100102.34;7390897;19;20570;-70
2023/10/13 12:10:06;;;;;;;11.20;3.65;;;;;;;19.70;85.94;100097.72;7392619;19;19965;-71
2023/10/13 12:12:43;;;;;;;13.27;5.68;;;;;;;19.72;85.59;100090.06;7391581;19;19922;-71
2023/10/13 12:15:25;;;;;;;9.88;3.47;;;;;;;19.74;86.70;100089.81;7385472;19;19915;-70
2023/10/13 12:17:57;;;;;;;10.80;3.95;;;;;;;19.76;86.06;100082.22;7395390;19;19952;-71
2023/10/13 12:20:32;;;;;;;10.30;3.60;;;;;;;19.74;86.49;100085.19;7391574;19;19918;-71
2023/10/13 12:23:09;;;;;;;10.20;4.30;;;;;;;19.74;86.28;100074.25;7389966;19;19932;-70
2023/10/13 12:25:54;;;;;;;12.27;4.47;;;;;;;19.69;85.05;100068.72;7394155;19;20353;-71
2023/10/13 12:28:26;;;;;;;10.38;4.15;;;;;;;19.67;86.25;100075.53;7395480;19;19933;-70
2023/10/13 12:30:57;;;;;;;9.63;4.75;;;;;;;19.64;86.85;100067.84;7394520;19;19957;-69
2023/10/13 12:33:36;;;;;;;14.07;4.00;;;;;;;19.59;87.38;100071.31;7393647;19;19958;-69
2023/10/13 12:36:06;;;;;;;15.65;5.15;;;;;;;19.52;88.21;100070.72;7391750;19;19922;-69
2023/10/13 12:48:55;;;;;;;15.82;4.15;;;;;;;19.48;87.31;100080.50;7395611;19;20457;-72
2023/10/13 12:49:57;;;;;;;9.38;4.70;;;;;;;19.30;88.95;100070.69;7393060;19;19923;-73
2023/10/13 12:52:31;;;;;;;;;;;;;;;19.19;88.07;100071.63;7388809;19;20316;-71
2023/10/13 12:55:09;;;;;;;17.05;4.20;;;;;;;19.30;88.31;100067.94;7393731;19;19933;-71
2023/10/13 12:57:43;;;;;;;12.27;4.38;;;;;;;19.34;88.39;100069.09;7389277;19;19919;-70
2023/10/13 13:00:32;;;;;;;15.52;3.83;;;;;;;19.32;87.42;100062.25;7395538;19;19985;-70
2023/10/13 13:03:11;;;;;;;12.90;4.47;;;;;;;19.32;87.46;100064.97;7400882;19;19918;-70
2023/10/13 13:05:44;;;;;;;10.07;4.60;;;;;;;19.35;87.75;100053.53;7401479;19;20856;-71
2023/10/13 13:08:21;;;;;;;12.10;4.38;;;;;;;19.34;88.02;100054.59;7397622;19;20321;-71
2023/10/13 13:10:51;;;;;;;12.63;4.57;;;;;;;19.33;87.92;100044.75;7399605;19;19929;-71
2023/10/13 13:13:24;;;;;;;9.85;4.15;;;;;;;19.33;87.35;100042.00;7395625;19;19922;-72
2023/10/13 13:15:56;;;;;;;13.05;5.15;;;;;;;19.31;86.13;100057.84;7401969;19;19919;-71
2023/10/13 13:18:24;;;;;;;11.20;4.22;;;;;;;19.34;87.38;100051.88;7402204;19;19939;-71
2023/10/13 13:20:56;;;;;;;14.23;5.35;;;;;;;19.33;87.44;100053.78;7402270;19;19923;-71
2023/10/13 13:23:26;;;;;;;12.48;4.78;;;;;;;19.31;86.95;100041.47;7401557;19;19990;-71
2023/10/13 13:25:56;;;;;;;15.20;5.28;;;;;;;19.30;87.29;100043.38;7401826;19;19914;-71
2023/10/13 13:28:28;;;;;;;10.07;4.32;;;;;;;19.31;87.44;100022.34;7401483;19;19919;-71
2023/10/13 13:30:59;;;;;;;10.07;4.50;;;;;;;19.30;86.71;100009.75;7401873;19;19914;-71
2023/10/13 13:33:33;;;;;;;12.15;4.68;;;;;;;19.30;87.36;99998.84;7402153;19;19948;-71
2023/10/13 13:36:01;;;;;;;12.57;5.30;;;;;;;19.28;87.38;100003.75;7401946;19;19923;-71
2023/10/13 13:38:31;;;;;;;11.13;5.00;;;;;;;19.27;85.88;100029.41;7401220;19;19958;-71
2023/10/13 13:41:01;;;;;;;14.38;5.45;;;;;;;19.25;86.56;100045.19;7401316;19;19947;-71
2023/10/13 13:43:37;;;;;;;12.70;5.20;;;;;;;19.23;86.81;100028.25;7401185;19;20017;-71
2023/10/13 13:46:11;;;;;;;12.27;4.50;;;;;;;19.23;85.93;100017.34;7401160;19;19957;-71